createdAt,value
2018-04-29T00:01:11.211Z,17.27
2018-04-29T00:06:12.511Z,17.44
2018-04-29T00:11:13.872Z,17.45
2018-04-29T00:16:15.929Z,17.33
2018-04-29T00:21:17.239Z,17.24
2018-04-29T00:26:18.558Z,17.17
2018-04-29T00:31:20.605Z,17.14
2018-04-29T00:36:21.931Z,16.84
2018-04-29T00:41:23.265Z,16.58
2018-04-29T00:46:24.575Z,16.92
2018-04-29T00:51:44.113Z,16.80
2018-04-29T00:56:45.406Z,16.80
2018-04-29T01:01:46.713Z,16.78
2018-04-29T01:06:48.039Z,16.81
2018-04-29T01:11:49.337Z,16.90
2018-04-29T01:16:50.646Z,17.05
2018-04-29T01:21:51.953Z,16.90
2018-04-29T01:26:53.282Z,16.59
2018-04-29T01:31:54.799Z,16.41
2018-04-29T01:36:56.105Z,16.21
2018-04-29T01:41:57.441Z,16.20
2018-04-29T01:46:58.766Z,16.42
2018-04-29T01:52:00.056Z,16.33
2018-04-29T01:57:01.375Z,16.15
2018-04-29T02:02:02.714Z,16.13
2018-04-29T02:07:04.798Z,16.18
2018-04-29T02:12:06.865Z,16.25
2018-04-29T02:17:08.158Z,16.22
2018-04-29T02:22:09.462Z,16.11
2018-04-29T02:27:10.777Z,16.10
2018-04-29T02:32:12.838Z,15.95
2018-04-29T02:37:14.201Z,15.64
2018-04-29T02:42:15.506Z,15.38
2018-04-29T02:47:16.798Z,14.99
2018-04-29T02:52:18.098Z,14.76
2018-04-29T02:57:19.389Z,14.80
2018-04-29T03:02:20.708Z,14.88
2018-04-29T03:07:22.212Z,14.85
2018-04-29T03:12:23.681Z,14.81
2018-04-29T03:17:25.138Z,14.79
2018-04-29T03:22:26.657Z,14.76
2018-04-29T03:27:28.171Z,14.82
2018-04-29T03:32:29.653Z,14.83
2018-04-29T03:37:30.955Z,14.74
2018-04-29T03:42:32.273Z,14.70
2018-04-29T03:47:33.629Z,14.56
2018-04-29T03:52:34.934Z,14.42
2018-04-29T03:57:55.374Z,14.44
2018-04-29T04:03:14.994Z,14.47
2018-04-29T04:08:17.018Z,14.52
2018-04-29T04:13:18.527Z,14.48
2018-04-29T04:18:19.841Z,14.53
2018-04-29T04:23:21.142Z,14.51
2018-04-29T04:28:22.446Z,14.49
2018-04-29T04:33:23.762Z,14.23
2018-04-29T04:38:25.805Z,14.17
2018-04-29T04:43:27.100Z,14.10
2018-04-29T04:48:28.437Z,13.98
2018-04-29T04:53:30.468Z,14.12
2018-04-29T04:58:31.765Z,14.17
2018-04-29T05:03:33.072Z,14.33
2018-04-29T05:08:34.389Z,14.64
2018-04-29T05:13:35.708Z,14.78
2018-04-29T05:18:37.012Z,15.07
2018-04-29T05:23:38.330Z,15.07
2018-04-29T05:28:39.645Z,15.12
2018-04-29T05:33:40.946Z,15.44
2018-04-29T05:38:42.243Z,15.61
2018-04-29T05:43:43.541Z,16.17
2018-04-29T05:48:44.851Z,16.48
2018-04-29T05:53:46.169Z,16.65
2018-04-29T05:58:47.486Z,17.02
2018-04-29T06:03:49.617Z,16.90
2018-04-29T06:08:51.698Z,17.33
2018-04-29T06:13:52.989Z,17.21
2018-04-29T06:18:54.303Z,17.46
2018-04-29T06:23:55.618Z,17.77
2018-04-29T06:28:56.917Z,17.91
2018-04-29T06:33:58.225Z,17.90
2018-04-29T06:38:59.525Z,17.80
2018-04-29T06:44:00.839Z,17.93
2018-04-29T06:49:02.930Z,17.94
2018-04-29T06:54:04.337Z,18.09
2018-04-29T06:59:06.436Z,18.32
2018-04-29T07:04:07.757Z,18.44
2018-04-29T07:09:09.077Z,18.70
2018-04-29T07:14:10.507Z,18.91
2018-04-29T07:19:11.774Z,19.02
2018-04-29T07:24:13.089Z,19.33
2018-04-29T07:29:15.139Z,19.37
2018-04-29T07:34:16.470Z,19.68
2018-04-29T07:39:17.764Z,19.57
2018-04-29T07:44:19.827Z,19.82
2018-04-29T07:49:21.222Z,19.61
2018-04-29T07:54:22.779Z,19.65
2018-04-29T07:59:24.149Z,19.86
2018-04-29T08:04:25.562Z,20.65
2018-04-29T08:09:26.890Z,20.50
2018-04-29T08:14:28.214Z,20.56
2018-04-29T08:19:30.552Z,20.52
2018-04-29T08:24:32.192Z,20.55
2018-04-29T08:29:33.689Z,20.88
2018-04-29T08:34:35.011Z,21.21
2018-04-29T08:39:37.118Z,21.39
2018-04-29T08:44:39.202Z,21.77
2018-04-29T08:49:40.519Z,21.89
2018-04-29T08:54:42.578Z,21.95
2018-04-29T08:59:43.912Z,22.46
2018-04-29T09:04:46.019Z,22.64
2018-04-29T09:09:48.078Z,22.32
2018-04-29T09:14:49.406Z,22.09
2018-04-29T09:19:50.726Z,22.97
2018-04-29T09:24:52.202Z,22.50
2018-04-29T09:29:53.611Z,22.64
2018-04-29T09:34:54.929Z,22.96
2018-04-29T09:39:56.219Z,23.70
2018-04-29T09:44:57.555Z,24.29
2018-04-29T09:49:59.636Z,23.30
2018-04-29T09:55:00.947Z,23.23
2018-04-29T10:00:03.055Z,23.34
2018-04-29T10:10:34.402Z,23.46
2018-04-29T10:15:36.634Z,23.86
2018-04-29T10:20:37.934Z,23.22
2018-04-29T10:25:39.239Z,22.67
2018-04-29T10:30:40.578Z,22.97
2018-04-29T10:35:41.981Z,23.47
2018-04-29T10:40:43.394Z,23.98
2018-04-29T10:45:44.707Z,24.47
2018-04-29T10:50:46.050Z,24.76
2018-04-29T10:55:48.111Z,24.23
2018-04-29T11:00:49.428Z,24.27
2018-04-29T11:05:50.752Z,24.56
2018-04-29T11:10:52.127Z,24.68
2018-04-29T11:15:54.234Z,25.20
2018-04-29T11:20:57.725Z,25.24
2018-04-29T11:25:59.825Z,25.53
2018-04-29T11:31:02.063Z,25.18
2018-04-29T11:36:03.990Z,25.24
2018-04-29T11:41:05.366Z,25.39
2018-04-29T11:46:06.775Z,24.30
2018-04-29T11:51:08.830Z,23.90
2018-04-29T11:56:10.156Z,24.24
2018-04-29T12:01:11.522Z,24.96
2018-04-29T12:06:13.691Z,24.70
2018-04-29T12:11:15.248Z,24.68
2018-04-29T12:16:17.524Z,24.85
2018-04-29T12:21:18.845Z,25.17
2018-04-29T12:26:20.961Z,25.61
2018-04-29T12:31:22.280Z,25.00
2018-04-29T12:36:23.630Z,25.25
2018-04-29T12:41:24.946Z,25.41
2018-04-29T12:46:27.026Z,25.25
2018-04-29T12:51:28.365Z,25.00
2018-04-29T12:56:29.707Z,25.02
2018-04-29T13:01:31.031Z,24.70
2018-04-29T13:06:32.360Z,24.60
2018-04-29T13:11:33.677Z,24.68
2018-04-29T13:16:34.998Z,25.00
2018-04-29T13:21:36.381Z,25.45
2018-04-29T13:26:38.458Z,25.96
2018-04-29T13:31:39.776Z,26.14
2018-04-29T13:36:41.825Z,26.47
2018-04-29T13:41:43.169Z,25.92
2018-04-29T13:46:45.314Z,25.47
2018-04-29T13:51:46.621Z,25.28
2018-04-29T13:56:47.949Z,25.19
2018-04-29T14:01:49.297Z,25.17
2018-04-29T14:06:50.610Z,25.51
2018-04-29T14:11:51.951Z,25.60
2018-04-29T14:16:53.299Z,26.30
2018-04-29T14:21:54.632Z,26.31
2018-04-29T14:26:55.982Z,25.99
2018-04-29T14:31:58.111Z,25.79
2018-04-29T14:36:59.439Z,25.89
2018-04-29T14:42:00.761Z,26.19
2018-04-29T14:47:02.125Z,26.46
2018-04-29T14:52:03.441Z,26.34
2018-04-29T14:57:05.522Z,26.26
2018-04-29T15:02:06.864Z,26.11
2018-04-29T15:07:08.196Z,26.21
2018-04-29T15:12:09.525Z,26.38
2018-04-29T15:17:11.598Z,26.26
2018-04-29T15:22:12.942Z,26.52
2018-04-29T15:27:14.253Z,26.91
2018-04-29T15:32:15.578Z,26.74
2018-04-29T15:37:16.915Z,26.38
2018-04-29T15:42:18.337Z,26.15
2018-04-29T15:47:19.654Z,25.40
2018-04-29T15:52:21.009Z,24.84
2018-04-29T15:57:22.341Z,24.94
2018-04-29T16:02:24.386Z,24.85
2018-04-29T16:07:25.719Z,24.46
2018-04-29T16:12:27.034Z,24.64
2018-04-29T16:17:29.092Z,24.78
2018-04-29T16:22:30.423Z,24.82
2018-04-29T16:27:31.736Z,25.46
2018-04-29T16:32:33.070Z,25.73
2018-04-29T16:37:34.409Z,25.19
2018-04-29T16:42:35.835Z,24.79
2018-04-29T16:47:37.143Z,24.02
2018-04-29T16:52:38.462Z,24.15
2018-04-29T16:57:40.538Z,23.92
2018-04-29T17:02:41.862Z,23.34
2018-04-29T17:07:43.194Z,23.46
2018-04-29T17:12:44.545Z,23.48
2018-04-29T17:17:46.628Z,23.46
2018-04-29T17:22:48.058Z,23.43
2018-04-29T17:27:49.450Z,23.13
2018-04-29T17:32:50.830Z,22.93
2018-04-29T17:37:52.179Z,23.08
2018-04-29T17:42:53.557Z,23.21
2018-04-29T17:47:54.884Z,23.27
2018-04-29T17:52:56.214Z,23.32
2018-04-29T17:57:57.550Z,23.45
2018-04-29T18:08:32.826Z,23.21
2018-04-29T18:13:34.132Z,23.13
2018-04-29T18:18:35.446Z,22.90
2018-04-29T18:23:36.779Z,22.59
2018-04-29T18:28:38.886Z,22.20
2018-04-29T18:33:40.945Z,22.01
2018-04-29T18:38:42.270Z,22.09
2018-04-29T18:43:44.387Z,22.12
2018-04-29T18:48:45.923Z,22.02
2018-04-29T18:53:47.261Z,21.90
2018-04-29T18:58:48.665Z,21.90
2018-04-29T19:03:50.751Z,21.77
2018-04-29T19:08:52.074Z,21.67
2018-04-29T19:13:54.121Z,21.66
2018-04-29T19:18:55.445Z,21.55
2018-04-29T19:23:56.785Z,21.15
2018-04-29T19:28:58.101Z,21.39
2018-04-29T19:34:06.461Z,21.36
2018-04-29T19:39:07.806Z,21.35
2018-04-29T19:44:09.112Z,21.31
2018-04-29T19:49:10.423Z,21.11
2018-04-29T19:54:11.754Z,21.08
2018-04-29T19:59:13.813Z,20.93
2018-04-29T20:04:15.130Z,20.62
2018-04-29T20:09:16.441Z,20.65
2018-04-29T20:14:18.482Z,20.72
2018-04-29T20:19:19.789Z,20.62
2018-04-29T20:24:21.094Z,20.63
2018-04-29T20:29:22.410Z,20.52
2018-04-29T20:34:24.473Z,20.41
2018-04-29T20:39:25.784Z,20.44
2018-04-29T20:44:27.085Z,20.14
2018-04-29T20:49:28.389Z,20.10
2018-04-29T20:54:30.428Z,19.91
2018-04-29T20:59:31.798Z,19.86
2018-04-29T21:04:33.164Z,19.84
2018-04-29T21:09:34.441Z,19.80
2018-04-29T21:14:35.745Z,19.73
2018-04-29T21:19:37.807Z,19.90
2018-04-29T21:24:39.127Z,20.01
2018-04-29T21:29:40.441Z,19.94
2018-04-29T21:34:42.470Z,20.06
2018-04-29T21:39:43.775Z,20.02
2018-04-29T21:44:45.074Z,20.01
2018-04-29T21:49:46.387Z,20.15
2018-04-29T21:54:47.705Z,19.99
2018-04-29T21:59:49.789Z,19.85
2018-04-29T22:04:51.101Z,19.84
2018-04-29T22:09:53.214Z,19.77
2018-04-29T22:14:54.530Z,19.60
2018-04-29T22:19:55.845Z,19.59
2018-04-29T22:24:57.158Z,19.63
2018-04-29T22:29:59.197Z,19.49
2018-04-29T22:35:00.502Z,19.48
2018-04-29T22:40:01.832Z,19.52
2018-04-29T22:45:03.152Z,19.54
2018-04-29T22:50:04.450Z,19.58
2018-04-29T22:55:05.762Z,19.51
2018-04-29T23:00:07.107Z,19.63
2018-04-29T23:05:09.165Z,19.56
2018-04-29T23:10:10.477Z,19.59
2018-04-29T23:15:11.781Z,19.54
2018-04-29T23:20:13.920Z,19.48
2018-04-29T23:25:15.170Z,19.40
2018-04-29T23:30:16.478Z,19.54
2018-04-29T23:35:18.531Z,19.49
2018-04-29T23:40:19.841Z,19.40
2018-04-29T23:45:21.137Z,19.26
2018-04-29T23:50:22.446Z,19.37
2018-04-29T23:55:24.538Z,19.23
